Lostwithiel, United Kingdom
Current Conditions -  °F | °C
As of 1:50 PM on Friday 24 Oct 2014 (Local Time) from EGHQ Reporting Station
Drizzle Drizzle  
Wind Chill: 55°   Ceiling: 200
Heat Index: 55°   Visibility: 0.31mi
Dew Point: 55°   Wind: 16mph
Humidity: 100%   Direction: 310°NW
Pressure: 29.94"   Gusts: NA
Location:  50.41°N, 4.67°W
Report Text: EGHQ 241250Z 31014KT 0500 R30/0500 DZ FG OVC002 13/13 Q1014
Loading
Personal Weather Stations






























Interactive Weather Map
Tropical Storm Tracking
New forecast layout! Learn more

10-Day Weather Forecast

Advertisements
Track Severe Weather on mobile